Latest Weather Observations for Dunalley

IDT60901

Issued at 2:31 pm EDT Friday 27 March 2015 (issued every 10 minutes, with the page automatically refreshed every 10 minutes)

About weather observations | Map of Hobart area stations | Latest observations for Hobart area | Other Formats
Station Details ID: 094254 Name: DUNALLEY (STROUD POINT) Lat: -42.90 Lon: 147.79 Height: 12.43 m
Data from the previous 72 hours. | See also: Recent months at Dunalley
Date/Time
EDT
Tmp

°C
App
Tmp
°C
Dew
Point
°C
Rel
Hum
%
Delta-T

°C
Wind Press
QNH
hPa
Press
MSL
hPa
Rain
since
9 am
mm
Dir
 
Spd
km/h
Gust
km/h
Spd
kts
Gust
kts
27/02:30pm 14.1 9.3 11.8 86 1.2 SW 28 37 15 20 1014.0 1014.0 2.8
27/02:00pm 14.8 7.2 11.8 82 1.6 SSW 43 48 23 26 1013.7 1013.7 2.8
27/01:30pm 14.3 8.8 12.0 86 1.2 SSW 32 39 17 21 1013.5 1013.5 2.8
27/01:00pm 13.8 7.7 11.7 87 1.1 SSW 35 44 19 24 1013.2 1013.2 2.8
27/12:30pm 13.7 8.4 11.4 86 1.2 SSW 30 35 16 19 1013.0 1013.0 2.8
27/12:00pm 13.4 6.8 11.5 88 1.0 SSW 37 50 20 27 1012.4 1012.4 2.8
27/11:30am 13.1 8.8 12.0 93 0.6 SW 26 35 14 19 1012.1 1012.1 2.6
27/11:00am 12.6 8.2 11.8 95 0.4 SW 26 32 14 17 1011.8 1011.8 2.4
27/10:30am 10.9 6.9 10.3 96 0.3 W 22 28 12 15 1011.5 1011.5 1.6
27/10:00am 10.4 6.7 9.5 94 0.5 WNW 19 26 10 14 1011.3 1011.3 0.8
27/09:30am 9.8 5.3 8.7 93 0.5 WNW 22 30 12 16 1010.9 1010.9 0.2
27/09:00am 9.6 4.7 8.5 93 0.5 WNW 24 33 13 18 1010.6 1010.6 17.4
27/08:30am 9.0 4.4 8.1 94 0.4 WNW 22 30 12 16 1010.4 1010.4 16.8
27/08:00am 8.8 4.5 7.7 93 0.5 NW 20 28 11 15 1010.3 1010.3 16.0
27/07:30am 8.8 4.4 7.6 92 0.6 WNW 20 28 11 15 1009.9 1009.9 15.6
27/07:00am 9.6 6.0 8.2 91 0.7 W 17 22 9 12 1009.8 1009.8 14.8
27/06:30am 10.3 4.7 8.6 89 0.8 W 28 43 15 23 1009.5 1009.5 14.4
27/06:00am 10.4 5.8 8.0 85 1.2 W 22 32 12 17 1009.3 1009.3 13.6
27/05:30am 11.0 5.7 8.6 85 1.2 W 26 39 14 21 1009.2 1009.2 13.6
27/05:00am 9.8 5.6 7.4 85 1.1 WNW 19 24 10 13 1009.3 1009.3 13.6
27/04:30am 10.3 6.5 7.7 84 1.2 W 17 20 9 11 1009.2 1009.2 13.6
27/04:00am 10.4 7.5 8.0 85 1.2 WNW 13 17 7 9 1009.6 1009.6 13.6
27/03:30am 10.9 7.3 8.3 84 1.3 W 17 22 9 12 1009.9 1009.9 13.6
27/03:00am 10.7 7.5 8.5 86 1.1 W 15 24 8 13 1010.1 1010.1 13.6
27/02:30am 10.7 7.9 8.5 86 1.1 WNW 13 22 7 12 1010.2 1010.2 13.6
27/02:00am 12.4 7.5 9.8 84 1.3 WSW 26 32 14 17 1010.2 1010.2 13.6
27/01:30am 12.4 8.7 10.3 87 1.1 W 20 28 11 15 1010.3 1010.3 13.6
27/01:00am 11.4 8.4 9.3 87 1.1 WSW 15 19 8 10 1010.5 1010.5 13.6
27/12:30am 12.5 8.9 9.7 83 1.4 SW 19 20 10 11 1010.5 1010.5 13.6
27/12:00am 11.6 7.6 9.0 84 1.3 SSW 20 28 11 15 1010.7 1010.7 13.6
 
Date/Time
EDT
Tmp

°C
App
Tmp
°C
Dew
Point
°C
Rel
Hum
%
Delta-T

°C
Wind Press
QNH
hPa
Press
MSL
hPa
Rain
since
9 am
mm
Dir
 
Spd
km/h
Gust
km/h
Spd
kts
Gust
kts
26/11:30pm 10.9 8.3 9.3 90 0.8 SSW 13 19 7 10 1010.9 1010.9 13.6
26/11:00pm 9.8 7.8 8.7 93 0.5 SSW 9 13 5 7 1010.9 1010.9 13.6
26/10:30pm 9.9 8.8 8.3 90 0.8 SSW 4 7 2 4 1010.9 1010.9 13.6
26/10:00pm 11.2 10.3 9.3 88 1.0 SSW 4 6 2 3 1010.9 1010.9 13.6
26/09:30pm 11.7 9.4 10.4 92 0.7 SSW 13 20 7 11 1011.1 1011.1 13.4
26/09:00pm 11.5 6.9 9.8 89 0.9 SW 24 30 13 16 1011.3 1011.3 12.0
26/08:30pm 11.0 6.3 9.1 88 0.9 WSW 24 28 13 15 1011.2 1011.2 10.8
26/08:00pm 10.3 4.9 8.1 86 1.1 W 26 33 14 18 1011.2 1011.2 5.0
26/07:30pm 13.1 12.2 9.2 77 2.0 NW 4 6 2 3 1010.3 1010.3 3.4
26/07:00pm 14.0 12.8 9.6 75 2.3 NW 6 9 3 5 1009.7 1009.7 3.4
26/06:30pm 14.5 13.7 9.5 72 2.6 NW 4 6 2 3 1009.5 1009.5 3.4
26/06:00pm 15.6 14.9 10.2 70 2.8 NW 4 6 2 3 1009.4 1009.4 3.4
26/05:30pm 15.6 14.3 9.1 65 3.3 NW 6 6 3 3 1009.3 1009.3 3.4
26/05:00pm 14.8 13.2 10.2 74 2.4 WNW 9 11 5 6 1009.3 1009.3 3.4
26/04:30pm 15.0 13.9 10.8 76 2.2 WNW 7 9 4 5 1009.5 1009.5 3.4
26/04:00pm 15.5 13.3 10.7 73 2.5 WNW 13 15 7 8 1009.6 1009.6 3.4
26/03:30pm 15.4 14.0 10.8 74 2.4 WNW 9 13 5 7 1009.9 1009.9 3.4
26/03:00pm 13.8 12.5 11.3 85 1.3 WNW 9 13 5 7 1010.0 1010.0 3.2
26/02:30pm 14.5 13.9 10.3 76 2.2 NW 4 6 2 3 1010.0 1010.0 3.2
26/02:00pm 13.9 12.6 9.9 77 2.1 NW 7 15 4 8 1010.6 1010.6 3.2
26/01:30pm 13.9 13.1 9.5 75 2.3 NW 4 6 2 3 1010.7 1010.7 3.2
26/01:00pm 14.3 13.1 9.7 74 2.4 NW 6 7 3 4 1011.1 1011.1 3.0
26/12:30pm 14.4 13.6 9.6 73 2.5 NW 4 7 2 4 1011.1 1011.1 3.0
26/12:00pm 13.4 11.7 10.0 80 1.8 WNW 9 13 5 7 1011.4 1011.4 3.0
26/11:30am 12.5 10.9 10.2 86 1.2 NNW 9 17 5 9 1011.3 1011.3 3.0
26/11:00am 11.4 9.1 10.5 94 0.5 NNW 13 19 7 10 1011.8 1011.8 3.0
26/10:30am 11.4 10.0 10.8 96 0.3 NW 9 15 5 8 1011.1 1011.1 3.0
26/10:00am 11.5 10.7 11.0 97 0.3 WNW 6 13 3 7 1011.3 1011.3 2.8
26/09:30am 10.7 9.6 10.1 96 0.3 WNW 6 7 3 4 1011.5 1011.5 2.2
26/09:00am 10.9 9.7 10.3 96 0.3 WNW 7 9 4 5 1011.6 1011.6 11.8
26/08:30am 10.7 7.4 9.6 93 0.6 NW 17 28 9 15 1011.6 1011.6 6.4
26/08:00am 12.4 11.9 10.8 90 0.8 NE 4 6 2 3 1011.4 1011.4 1.0
26/07:30am 12.6 10.4 10.7 88 1.0 NE 13 15 7 8 1011.2 1011.2 0.0
26/07:00am 12.8 9.6 10.0 83 1.4 NNE 17 19 9 10 1011.3 1011.3 0.0
26/06:30am 12.4 9.1 9.4 82 1.5 NE 17 20 9 11 1011.2 1011.2 0.0
26/06:00am 12.0 8.3 9.4 84 1.3 NE 19 26 10 14 1011.9 1011.9 0.0
26/05:30am 11.4 7.4 9.1 86 1.1 NE 20 24 11 13 1012.2 1012.2 0.0
26/05:00am 11.5 7.7 9.1 85 1.2 NE 19 22 10 12 1012.4 1012.4 0.0
26/04:30am 12.1 9.0 8.8 80 1.6 NE 15 19 8 10 1012.5 1012.5 0.0
26/04:00am 12.3 8.8 7.2 71 2.5 NNE 15 20 8 11 1013.0 1013.0 0.0
26/03:30am 11.6 9.0 6.1 69 2.6 N 9 13 5 7 1013.2 1013.2 0.0
26/03:00am 12.4 8.4 6.5 67 2.8 NNW 17 24 9 13 1013.5 1013.5 0.0
26/02:30am 13.3 10.0 6.2 62 3.4 N 13 26 7 14 1013.6 1013.6 0.0
26/02:00am 12.8 8.5 7.0 68 2.8 NNW 19 28 10 15 1014.0 1014.0 0.0
26/01:30am 13.5 8.6 6.8 64 3.2 NNW 22 30 12 16 1014.2 1014.2 0.0
26/01:00am 13.8 9.9 7.3 65 3.2 NNW 17 26 9 14 1014.1 1014.1 0.0
26/12:30am 14.1 11.6 8.1 67 3.0 N 11 17 6 9 1014.4 1014.4 0.0
26/12:00am 14.3 11.7 9.3 72 2.6 NNE 13 19 7 10 1014.3 1014.3 0.0
 
Date/Time
EDT
Tmp

°C
App
Tmp
°C
Dew
Point
°C
Rel
Hum
%
Delta-T

°C
Wind Press
QNH
hPa
Press
MSL
hPa
Rain
since
9 am
mm
Dir
 
Spd
km/h
Gust
km/h
Spd
kts
Gust
kts
25/11:30pm 14.5 11.1 10.7 78 2.0 NNE 19 24 10 13 1014.1 1014.1 0.0
25/11:00pm 14.9 11.3 10.5 75 2.3 NNE 20 26 11 14 1014.1 1014.1 0.0
25/10:30pm 14.3 10.6 10.3 77 2.1 NNE 20 26 11 14 1014.2 1014.2 0.0
25/10:00pm 14.0 9.5 10.2 78 2.0 NNE 24 30 13 16 1014.2 1014.2 0.0
25/09:30pm 14.2 9.3 10.0 76 2.2 NE 26 32 14 17 1013.9 1013.9 0.0
25/09:00pm 14.4 8.7 9.8 74 2.4 NE 30 35 16 19 1013.8 1013.8 0.0
25/08:30pm 14.8 8.3 10.2 74 2.4 NE 35 43 19 23 1013.7 1013.7 0.0
25/08:00pm 14.9 9.3 10.3 74 2.4 NE 30 37 16 20 1013.4 1013.4 0.0
25/07:30pm 14.9 9.3 10.1 73 2.5 NE 30 35 16 19 1013.4 1013.4 0.0
25/07:00pm 15.2 9.2 10.0 71 2.7 ENE 32 39 17 21 1013.1 1013.1 0.0
25/06:30pm 15.3 9.6 9.9 70 2.8 ENE 30 35 16 19 1013.2 1013.2 0.0
25/06:00pm 15.8 10.4 9.5 66 3.3 ENE 28 33 15 18 1012.9 1012.9 0.0
25/05:30pm 16.2 10.4 9.4 64 3.5 ENE 30 35 16 19 1012.7 1012.7 0.0
25/05:00pm 16.2 10.9 8.4 60 4.0 ENE 26 30 14 16 1012.6 1012.6 0.0
25/04:30pm 16.3 11.7 8.3 59 4.1 ENE 22 26 12 14 1012.7 1012.7 0.0
25/04:00pm 16.5 11.8 7.7 56 4.4 ENE 22 26 12 14 1012.9 1012.9 0.0
25/03:30pm 17.1 12.4 7.7 54 4.7 NE 22 28 12 15 1013.0 1013.0 0.0
25/03:00pm 16.9 12.0 6.7 51 5.0 NE 22 28 12 15 1013.1 1013.1 0.0
25/02:30pm 16.9 12.5 7.5 54 4.7 NE 20 26 11 14 1013.3 1013.3 0.0
25/02:00pm 17.7 14.9 6.9 49 5.4 NNW 11 19 6 10 1013.9 1013.9 0.0
25/01:30pm 17.3 15.7 6.5 49 5.3 NW 4 11 2 6 1014.2 1014.2 0.0
25/01:00pm 18.6 15.8 5.1 41 6.5 WNW 9 26 5 14 1014.5 1014.5 0.0
25/12:30pm 17.6 14.0 4.9 43 6.1 WNW 13 22 7 12 1014.7 1014.7 0.0
25/12:00pm 16.2 13.7 4.9 47 5.3 W 7 13 4 7 1015.1 1015.1 0.0
25/11:30am 15.9 11.8 4.3 46 5.4 WNW 15 22 8 12 1015.2 1015.2 0.0
25/11:00am 16.1 12.0 4.5 46 5.4 WNW 15 26 8 14 1015.3 1015.3 0.0
25/10:30am 15.7 12.4 4.7 48 5.2 NW 11 19 6 10 1015.3 1015.3 0.0
25/10:00am 15.2 12.0 5.1 51 4.8 WNW 11 17 6 9 1015.4 1015.4 0.0
25/09:30am 14.6 11.3 4.6 51 4.6 WNW 11 17 6 9 1015.4 1015.4 0.0
25/09:00am 13.0 9.3 4.4 56 3.9 WNW 13 19 7 10 1015.4 1015.4 0.0
25/08:30am 13.1 8.9 4.0 54 4.1 SW 15 19 8 10 1015.4 1015.4 0.0
25/08:00am 11.3 8.8 4.5 63 3.1 SSE 7 11 4 6 1015.2 1015.2 0.0
25/07:30am 10.2 7.2 4.1 66 2.7 S 9 13 5 7 1015.1 1015.1 0.0
25/07:00am 9.8 6.8 4.2 68 2.5 S 9 13 5 7 1014.9 1014.9 0.0
25/06:30am 10.1 7.1 4.3 67 2.6 S 9 13 5 7 1015.0 1015.0 0.0
25/06:00am 9.5 7.0 3.5 66 2.6 S 6 11 3 6 1015.0 1015.0 0.0
25/05:30am 9.3 5.8 3.5 67 2.5 S 11 15 6 8 1014.9 1014.9 0.0
25/05:00am 10.9 8.5 4.4 64 2.9 S 6 7 3 4 1015.2 1015.2 0.0
25/04:30am 11.0 8.4 4.2 63 3.0 S 7 11 4 6 1015.2 1015.2 0.0
25/04:00am 11.3 8.3 4.3 62 3.1 S 9 13 5 7 1015.5 1015.5 0.0
25/03:30am 11.4 8.5 4.4 62 3.2 S 9 13 5 7 1015.7 1015.7 0.0
25/03:00am 11.4 8.7 3.9 60 3.3 S 7 13 4 7 1016.0 1016.0 0.0
25/02:30am 11.5 8.5 4.0 60 3.4 S 9 15 5 8 1016.0 1016.0 0.0
25/02:00am 11.5 8.5 4.3 61 3.2 S 9 15 5 8 1015.9 1015.9 0.0
25/01:30am 11.6 8.6 4.1 60 3.4 S 9 15 5 8 1015.9 1015.9 0.0
25/01:00am 11.3 8.4 4.5 63 3.1 S 9 11 5 6 1016.1 1016.1 0.0
25/12:30am 11.7 9.1 4.2 60 3.4 S 7 9 4 5 1016.4 1016.4 0.0
25/12:00am 12.2 8.8 4.2 58 3.6 S 11 15 6 8 1016.8 1016.8 0.0
 
Date/Time
EDT
Tmp

°C
App
Tmp
°C
Dew
Point
°C
Rel
Hum
%
Delta-T

°C
Wind Press
QNH
hPa
Press
MSL
hPa
Rain
since
9 am
mm
Dir
 
Spd
km/h
Gust
km/h
Spd
kts
Gust
kts
24/11:30pm 12.3 9.0 4.3 58 3.6 S 11 13 6 7 1017.0 1017.0 0.0
24/11:00pm 12.2 9.7 4.9 61 3.3 SSE 7 11 4 6 1017.3 1017.3 0.0
24/10:30pm 12.4 9.2 4.9 60 3.4 SSE 11 15 6 8 1017.2 1017.2 0.0
24/10:00pm 12.5 9.9 6.1 65 3.0 SSE 9 11 5 6 1017.4 1017.4 0.0
24/09:30pm 13.1 11.5 6.2 63 3.3 SSE 4 6 2 3 1017.6 1017.6 0.0
24/09:00pm 13.3 11.1 6.2 62 3.4 SSE 7 13 4 7 1017.6 1017.6 0.0
24/08:30pm 12.9 11.3 6.3 64 3.1 SSE 4 6 2 3 1017.2 1017.2 0.0
24/08:00pm 12.5 10.2 5.7 63 3.2 SSE 7 11 4 6 1017.0 1017.0 0.0
24/07:30pm 12.1 10.1 7.0 71 2.4 SSE 7 9 4 5 1016.8 1016.8 0.0
24/07:00pm 13.2 11.1 5.6 60 3.6 SSE 6 7 3 4 1016.6 1016.6 0.0
24/06:30pm 13.7 11.9 5.3 57 3.9 SSE 4 6 2 3 1016.3 1016.3 0.0
24/06:00pm 14.8 11.7 5.6 54 4.4 SSE 11 15 6 8 1016.0 1016.0 0.0
24/05:30pm 15.4 12.0 5.9 53 4.6 S 13 17 7 9 1015.7 1015.7 0.0
24/05:00pm 15.4 12.0 5.9 53 4.6 SSE 13 17 7 9 1015.5 1015.5 0.0
24/04:30pm 15.3 11.8 5.5 52 4.7 SSE 13 20 7 11 1015.8 1015.8 0.0
24/04:00pm 15.1 11.3 5.9 54 4.4 SW 15 17 8 9 1015.8 1015.8 0.0
24/03:30pm 15.0 12.3 5.5 53 4.5 SSW 9 15 5 8 1015.7 1015.7 0.0
24/03:00pm 14.7 11.4 4.4 50 4.8 SSW 11 13 6 7 1016.0 1016.0 0.0

Latest Capital City Observations: Canberra | Sydney | Melbourne | Brisbane | Adelaide | Perth | Hobart | Darwin

Other Formats:

Comma delimited format used in spreadsheet applications
http://www.bom.gov.au/fwo/IDT60901/IDT60901.94951.axf

JavaScript Object Notation format (JSON) in row-major order
http://www.bom.gov.au/fwo/IDT60901/IDT60901.94951.json